Time,TemperatureF,DewpointF,PressureIn,WindDirection,WindDirectionDegrees,WindSpeedMPH,WindSpeedGustMPH,Humidity,HourlyPrecipIn,Conditions,Clouds,dailyrainin,SolarRadiationWatts/m^2,SoftwareType,DateUTC
2013-02-17 00:02:00,32.0,13.0,-100.00,WNW,299,1.0,6.0,45,0.00,,,0.18,0.000000,,2013-02-17 05:02:00,
2013-02-17 00:42:00,30.0,14.0,-100.00,WNW,300,1.0,4.0,50,0.00,,,0.18,0.000000,,2013-02-17 05:42:00,
2013-02-17 00:52:00,30.0,14.0,-100.00,WNW,300,1.0,4.0,50,0.00,,,0.18,0.000000,,2013-02-17 05:52:00,
2013-02-17 01:02:00,30.0,14.0,-100.00,WNW,300,1.0,4.0,50,0.00,,,0.18,0.000000,,2013-02-17 06:02:00,
2013-02-17 01:11:00,30.0,14.0,-100.00,WNW,300,1.0,4.0,50,0.00,,,0.18,0.000000,,2013-02-17 06:11:00,
2013-02-17 01:32:00,28.0,14.0,-100.00,WNW,290,0.0,6.0,55,0.00,,,0.18,0.000000,,2013-02-17 06:32:00,
2013-02-17 01:42:00,28.0,14.0,-100.00,WNW,290,0.0,6.0,55,0.00,,,0.18,0.000000,,2013-02-17 06:42:00,
2013-02-17 01:52:00,28.0,14.0,-100.00,WNW,290,0.0,6.0,55,0.00,,,0.18,0.000000,,2013-02-17 06:52:00,
2013-02-17 02:01:00,28.0,14.0,-100.00,WNW,290,0.0,6.0,55,0.00,,,0.18,0.000000,,2013-02-17 07:01:00,
2013-02-17 02:11:00,28.0,14.0,-100.00,WNW,290,0.0,6.0,55,0.00,,,0.18,0.000000,,2013-02-17 07:11:00,
2013-02-17 02:42:00,27.0,14.0,-100.00,WSW,251,0.0,1.0,58,0.00,,,0.18,0.000000,,2013-02-17 07:42:00,
2013-02-17 02:52:00,27.0,14.0,-100.00,WSW,251,0.0,1.0,58,0.00,,,0.18,0.000000,,2013-02-17 07:52:00,
2013-02-17 03:01:00,27.0,14.0,-100.00,WSW,251,0.0,1.0,58,0.00,,,0.18,0.000000,,2013-02-17 08:01:00,
2013-02-17 03:11:00,27.0,14.0,-100.00,WSW,251,0.0,1.0,58,0.00,,,0.18,0.000000,,2013-02-17 08:11:00,
2013-02-17 03:42:00,27.0,13.0,-100.00,WNW,289,0.0,3.0,54,0.00,,,0.18,0.000000,,2013-02-17 08:42:00,
2013-02-17 03:52:00,27.0,13.0,-100.00,WNW,289,0.0,3.0,54,0.00,,,0.18,0.000000,,2013-02-17 08:52:00,
2013-02-17 04:02:00,27.0,13.0,-100.00,WNW,289,0.0,3.0,54,0.00,,,0.18,0.000000,,2013-02-17 09:02:00,
2013-02-17 04:11:00,27.0,13.0,-100.00,WNW,289,0.0,3.0,54,0.00,,,0.18,0.000000,,2013-02-17 09:11:00,
2013-02-17 04:42:00,27.0,11.0,-100.00,WNW,289,1.0,5.0,51,0.00,,,0.18,0.000000,,2013-02-17 09:42:00,
2013-02-17 04:52:00,27.0,11.0,-100.00,WNW,289,1.0,5.0,51,0.00,,,0.18,0.000000,,2013-02-17 09:52:00,
2013-02-17 05:01:00,27.0,11.0,-100.00,WNW,289,1.0,5.0,51,0.00,,,0.18,0.000000,,2013-02-17 10:01:00,
2013-02-17 05:11:00,27.0,11.0,-100.00,WNW,289,1.0,5.0,51,0.00,,,0.18,0.000000,,2013-02-17 10:11:00,
2013-02-17 05:42:00,27.0,11.0,-100.00,WNW,303,0.0,5.0,50,0.00,,,0.18,0.000000,,2013-02-17 10:42:00,
2013-02-17 05:52:00,27.0,11.0,-100.00,WNW,303,0.0,5.0,50,0.00,,,0.18,0.000000,,2013-02-17 10:52:00,
2013-02-17 06:01:00,27.0,11.0,-100.00,WNW,303,0.0,5.0,50,0.00,,,0.18,0.000000,,2013-02-17 11:01:00,
2013-02-17 06:11:00,27.0,11.0,-100.00,WNW,303,0.0,5.0,50,0.00,,,0.18,0.000000,,2013-02-17 11:11:00,
2013-02-17 06:42:00,26.0,10.0,-100.00,WNW,289,0.0,5.0,50,0.00,,,0.16,0.000000,,2013-02-17 11:42:00,
2013-02-17 06:53:00,26.0,10.0,-100.00,WNW,289,0.0,5.0,50,0.00,,,0.16,0.000000,,2013-02-17 11:53:00,
2013-02-17 07:03:00,26.0,10.0,-100.00,WNW,289,0.0,5.0,50,0.00,,,0.16,0.000000,,2013-02-17 12:03:00,
2013-02-17 07:11:00,26.0,10.0,-100.00,WNW,289,0.0,5.0,50,0.00,,,0.16,0.000000,,2013-02-17 12:11:00,
2013-02-17 07:12:00,24.0,9.0,-100.00,WSW,254,0.0,3.0,51,0.00,,,0.15,0.000000,,2013-02-17 12:12:00,
2013-02-17 07:32:00,24.0,9.0,-100.00,WSW,254,0.0,3.0,51,0.00,,,0.15,0.000000,,2013-02-17 12:32:00,
2013-02-17 07:42:00,24.0,9.0,-100.00,WSW,254,0.0,3.0,51,0.00,,,0.15,0.000000,,2013-02-17 12:42:00,
2013-02-17 07:52:00,24.0,9.0,-100.00,WSW,254,0.0,3.0,51,0.00,,,0.15,0.000000,,2013-02-17 12:52:00,
2013-02-17 08:02:00,24.0,9.0,-100.00,WSW,254,0.0,3.0,51,0.00,,,0.15,0.000000,,2013-02-17 13:02:00,
2013-02-17 09:42:00,35.0,8.0,-100.00,WNW,286,1.0,6.0,32,-99.99,,,0.04,270.000000,,2013-02-17 14:42:00,
2013-02-17 09:53:00,35.0,8.0,-100.00,WNW,286,1.0,6.0,32,-99.99,,,0.04,270.000000,,2013-02-17 14:53:00,
2013-02-17 10:02:00,35.0,8.0,-100.00,WNW,286,1.0,6.0,32,-99.99,,,0.04,270.000000,,2013-02-17 15:02:00,
2013-02-17 10:11:00,35.0,8.0,-100.00,WNW,286,1.0,6.0,32,-99.99,,,0.04,270.000000,,2013-02-17 15:11:00,
2013-02-17 10:12:00,39.0,8.0,-100.00,WNW,302,2.0,7.0,27,0.00,,,0.01,482.000000,,2013-02-17 15:12:00,
2013-02-17 10:42:00,39.0,8.0,-100.00,WNW,302,2.0,7.0,27,0.00,,,0.01,482.000000,,2013-02-17 15:42:00,
2013-02-17 10:52:00,39.0,8.0,-100.00,WNW,302,2.0,7.0,27,0.00,,,0.01,482.000000,,2013-02-17 15:52:00,
2013-02-17 11:01:00,39.0,8.0,-100.00,WNW,302,2.0,7.0,27,0.00,,,0.01,482.000000,,2013-02-17 16:01:00,
2013-02-17 11:32:00,41.0,8.0,-100.00,NW,306,2.0,9.0,25,0.00,,,0.01,659.000000,,2013-02-17 16:32:00,
2013-02-17 11:42:00,41.0,8.0,-100.00,NW,306,2.0,9.0,25,0.00,,,0.01,659.000000,,2013-02-17 16:42:00,
2013-02-17 11:52:00,41.0,8.0,-100.00,NW,306,2.0,9.0,25,0.00,,,0.01,659.000000,,2013-02-17 16:52:00,
2013-02-17 12:02:00,41.0,8.0,-100.00,NW,306,2.0,9.0,25,0.00,,,0.01,659.000000,,2013-02-17 17:02:00,
2013-02-17 12:11:00,41.0,8.0,-100.00,NW,306,2.0,9.0,25,0.00,,,0.01,659.000000,,2013-02-17 17:11:00,
2013-02-17 12:32:00,42.0,7.0,-100.00,NW,305,2.0,9.0,23,0.00,,,0.01,776.000000,,2013-02-17 17:32:00,
2013-02-17 12:42:00,42.0,7.0,-100.00,NW,305,2.0,9.0,23,0.00,,,0.01,776.000000,,2013-02-17 17:42:00,
2013-02-17 12:52:00,42.0,7.0,-100.00,NW,305,2.0,9.0,23,0.00,,,0.01,776.000000,,2013-02-17 17:52:00,
2013-02-17 13:02:00,42.0,7.0,-100.00,NW,305,2.0,9.0,23,0.00,,,0.01,776.000000,,2013-02-17 18:02:00,
2013-02-17 13:11:00,42.0,7.0,-100.00,NW,305,2.0,9.0,23,0.00,,,0.01,776.000000,,2013-02-17 18:11:00,
2013-02-17 13:42:00,44.0,7.0,-100.00,West,279,3.0,8.0,21,0.00,,,0.01,830.000000,,2013-02-17 18:42:00,
2013-02-17 13:52:00,44.0,7.0,-100.00,West,279,3.0,8.0,21,0.00,,,0.01,830.000000,,2013-02-17 18:52:00,
2013-02-17 14:02:00,44.0,7.0,-100.00,West,279,3.0,8.0,21,0.00,,,0.01,830.000000,,2013-02-17 19:02:00,
2013-02-17 14:11:00,44.0,7.0,-100.00,West,279,3.0,8.0,21,0.00,,,0.01,830.000000,,2013-02-17 19:11:00,
2013-02-17 14:42:00,46.0,7.0,-100.00,SW,228,3.0,10.0,20,0.00,,,0.01,782.000000,,2013-02-17 19:42:00,
2013-02-17 14:52:00,46.0,7.0,-100.00,SW,228,3.0,10.0,20,0.00,,,0.01,782.000000,,2013-02-17 19:52:00,
2013-02-17 15:02:00,46.0,7.0,-100.00,SW,228,3.0,10.0,20,0.00,,,0.01,782.000000,,2013-02-17 20:02:00,
2013-02-17 15:11:00,46.0,7.0,-100.00,SW,228,3.0,10.0,20,0.00,,,0.01,782.000000,,2013-02-17 20:11:00,
2013-02-17 15:43:00,48.0,3.0,-100.00,WNW,301,4.0,9.0,15,0.00,,,0.00,699.000000,,2013-02-17 20:43:00,
2013-02-17 15:52:00,48.0,3.0,-100.00,WNW,301,4.0,9.0,15,0.00,,,0.00,699.000000,,2013-02-17 20:52:00,
2013-02-17 16:12:00,49.0,5.0,-100.00,WNW,299,2.0,10.0,16,0.00,,,0.00,549.000000,,2013-02-17 21:12:00,
2013-02-17 16:42:00,49.0,5.0,-100.00,WNW,299,2.0,10.0,16,0.00,,,0.00,549.000000,,2013-02-17 21:42:00,
2013-02-17 16:53:00,49.0,5.0,-100.00,WNW,299,2.0,10.0,16,0.00,,,0.00,549.000000,,2013-02-17 21:53:00,
2013-02-17 17:01:00,49.0,5.0,-100.00,WNW,299,2.0,10.0,16,0.00,,,0.00,549.000000,,2013-02-17 22:01:00,
2013-02-17 17:32:00,46.0,5.0,-100.00,West,273,3.0,8.0,18,0.00,,,0.00,146.000000,,2013-02-17 22:32:00,
2013-02-17 17:42:00,46.0,5.0,-100.00,West,273,3.0,8.0,18,0.00,,,0.00,146.000000,,2013-02-17 22:42:00,
2013-02-17 17:52:00,46.0,5.0,-100.00,West,273,3.0,8.0,18,0.00,,,0.00,146.000000,,2013-02-17 22:52:00,
2013-02-17 18:02:00,46.0,5.0,-100.00,West,273,3.0,8.0,18,0.00,,,0.00,146.000000,,2013-02-17 23:02:00,
2013-02-17 18:11:00,46.0,5.0,-100.00,West,273,3.0,8.0,18,0.00,,,0.00,146.000000,,2013-02-17 23:11:00,
2013-02-17 18:12:00,43.0,7.0,-100.00,WNW,289,1.0,7.0,22,0.00,,,0.00,35.000000,,2013-02-17 23:12:00,
2013-02-17 18:42:00,43.0,7.0,-100.00,WNW,289,1.0,7.0,22,0.00,,,0.00,35.000000,,2013-02-17 23:42:00,
2013-02-17 18:52:00,43.0,7.0,-100.00,WNW,289,1.0,7.0,22,0.00,,,0.00,35.000000,,2013-02-17 23:52:00,
2013-02-17 19:02:00,43.0,7.0,-100.00,WNW,289,1.0,7.0,22,0.00,,,0.00,35.000000,,2013-02-18 00:02:00,
2013-02-17 19:12:00,39.0,8.0,-100.00,South,190,1.0,3.0,27,0.00,,,0.00,1.000000,,2013-02-18 00:12:00,
2013-02-17 19:42:00,39.0,8.0,-100.00,South,190,1.0,3.0,27,0.00,,,0.00,1.000000,,2013-02-18 00:42:00,
2013-02-17 19:52:00,39.0,8.0,-100.00,South,190,1.0,3.0,27,0.00,,,0.00,1.000000,,2013-02-18 00:52:00,
2013-02-17 20:01:00,39.0,8.0,-100.00,South,190,1.0,3.0,27,0.00,,,0.00,1.000000,,2013-02-18 01:01:00,
2013-02-17 21:42:00,35.0,10.0,-100.00,West,265,0.0,1.0,35,-99.99,,,0.00,0.000000,,2013-02-18 02:42:00,
2013-02-17 21:52:00,35.0,10.0,-100.00,West,265,0.0,1.0,35,-99.99,,,0.00,0.000000,,2013-02-18 02:52:00,
2013-02-17 22:02:00,35.0,10.0,-100.00,West,265,0.0,1.0,35,-99.99,,,0.00,0.000000,,2013-02-18 03:02:00,
2013-02-17 22:11:00,35.0,10.0,-100.00,West,265,0.0,1.0,35,-99.99,,,0.00,0.000000,,2013-02-18 03:11:00,
2013-02-17 22:32:00,34.0,11.0,-100.00,West,271,0.0,1.0,38,0.00,,,0.00,0.000000,,2013-02-18 03:32:00,
2013-02-17 22:42:00,34.0,11.0,-100.00,West,271,0.0,1.0,38,0.00,,,0.00,0.000000,,2013-02-18 03:42:00,
2013-02-17 22:52:00,34.0,11.0,-100.00,West,271,0.0,1.0,38,0.00,,,0.00,0.000000,,2013-02-18 03:52:00,
2013-02-17 23:01:00,34.0,11.0,-100.00,West,271,0.0,1.0,38,0.00,,,0.00,0.000000,,2013-02-18 04:01:00,
2013-02-17 23:11:00,34.0,11.0,-100.00,West,271,0.0,1.0,38,0.00,,,0.00,0.000000,,2013-02-18 04:11:00,
2013-02-17 23:42:00,32.0,12.0,-100.00,ESE,107,0.0,1.0,43,0.00,,,0.00,0.000000,,2013-02-18 04:42:00,
2013-02-17 23:52:00,32.0,12.0,-100.00,ESE,107,0.0,1.0,43,0.00,,,0.00,0.000000,,2013-02-18 04:52:00,